Latest Coastal Weather Observations for Cape Jaffa

IDS60701

Issued at 4:01 pm CDT Tuesday 28 February 2017 (issued every 10 minutes, with the page automatically refreshed every 10 minutes)

About coastal observations | Map of coastal stations | Coastal observations for SA | Marine services | Other Formats
Station Details ID: 026095 Name: THE LIMESTONE Lat: -36.97 Lon: 139.72 Height: 17.0 m
Data from the previous 72 hours. | See also: Recent months at Cape Jaffa
Date/Time
CDT
Temp
°C
Wind Pressure Rain since
9am
mm
Weather Cloud Vis
km
Sea
Height
m
Swell
Dir  Spd
kts
Gust
kts
hPa Trend Height
m
Period
s
Dir
28/04:00pm 35.9 NW 7 10 1016.4 - 0.0 - - - - - - -
28/03:30pm 35.4 NW 8 9 1016.7 - 0.0 - - - - - - -
28/03:00pm 35.0 NNW 8 12 1017.1 - 0.0 - - - - - - -
28/02:30pm 34.8 NNW 8 10 1017.4 - 0.0 - - - - - - -
28/02:00pm 34.0 NNW 8 11 1017.6 - 0.0 - - - - - - -
28/01:30pm 34.4 N 8 13 1017.9 - 0.0 - - - - - - -
28/01:00pm 33.6 N 9 13 1018.0 - 0.0 - - - - - - -
28/12:30pm 34.2 N 11 14 1018.4 - 0.0 - - - - - - -
28/12:00pm 32.7 NNE 12 17 1018.6 - 0.0 - - - - - - -
28/11:30am 32.3 NNE 13 17 1018.7 - 0.0 - - - - - - -
28/11:00am 31.6 NNE 12 16 1018.9 - 0.0 - - - - - - -
28/10:30am 30.0 NNE 12 16 1019.0 - 0.0 - - - - - - -
28/10:00am 28.6 NNE 12 15 1019.0 - 0.0 - - - - - - -
28/09:30am 27.9 NNE 12 17 1018.9 - 0.0 - - - - - - -
28/09:00am 26.2 NE 10 13 1018.8 - 0.0 - - - - - - -
28/08:30am 23.2 NE 10 13 1018.8 - 0.0 - - - - - - -
28/08:00am 21.5 ENE 9 12 1018.5 - 0.0 - - - - - - -
28/07:30am 19.8 ENE 9 11 1018.3 - 0.0 - - - - - - -
28/07:00am 19.0 ENE 8 10 1018.1 - 0.0 - - - - - - -
28/06:30am 19.1 ENE 8 9 1017.9 - 0.0 - - - - - - -
28/06:00am 19.2 ENE 8 9 1017.7 - 0.0 - - - - - - -
28/05:30am 19.3 ENE 8 9 1017.5 - 0.0 - - - - - - -
28/05:00am 19.5 E 9 10 1017.4 - 0.0 - - - - - - -
28/04:30am 19.9 E 9 10 1017.3 - 0.0 - - - - - - -
28/04:00am 20.7 E 9 11 1017.4 - 0.0 - - - - - - -
28/03:30am 20.7 E 8 9 1017.5 - 0.0 - - - - - - -
28/03:00am 20.9 E 8 9 1017.7 - 0.0 - - - - - - -
28/02:30am 21.8 E 9 10 1017.9 - 0.0 - - - - - - -
28/02:00am 22.8 E 10 12 1018.0 - 0.0 - - - - - - -
28/01:30am 24.0 E 11 14 1018.0 - 0.0 - - - - - - -
28/01:00am 24.0 ESE 8 12 1018.0 - 0.0 - - - - - - -
28/12:30am 24.8 ESE 8 12 1017.9 - 0.0 - - - - - - -
28/12:00am 24.4 ESE 7 11 1018.1 - 0.0 - - - - - - -
 
Date/Time
CDT
Temp
°C
Wind Pressure Rain since
9am
mm
Weather Cloud Vis
km
Sea
Height
m
Swell
Dir  Spd
kts
Gust
kts
hPa Trend Height
m
Period
s
Dir
27/11:30pm 24.6 ESE 8 11 1018.2 - 0.0 - - - - - - -
27/11:00pm 25.0 ESE 8 13 1018.3 - 0.0 - - - - - - -
27/10:30pm 23.5 SE 6 8 1018.4 - 0.0 - - - - - - -
27/10:00pm 24.0 SE 7 10 1018.4 - 0.0 - - - - - - -
27/09:30pm 23.3 SE 7 9 1018.2 - 0.0 - - - - - - -
27/09:00pm 21.5 SSE 4 7 1018.0 - 0.0 - - - - - - -
27/08:30pm 22.0 SSE 6 9 1017.8 - 0.0 - - - - - - -
27/08:00pm 23.3 SSE 8 11 1017.6 - 0.0 - - - - - - -
27/07:30pm 21.7 S 9 11 1017.4 - 0.0 - - - - - - -
27/07:00pm 23.4 S 12 14 1017.1 - 0.0 - - - - - - -
27/06:30pm 23.2 S 15 18 1017.0 - 0.0 - - - - - - -
27/06:00pm 24.4 S 17 20 1016.9 - 0.0 - - - - - - -
27/05:30pm 23.3 S 17 20 1017.0 - 0.0 - - - - - - -
27/05:00pm 23.7 S 18 21 1016.9 - 0.0 - - - - - - -
27/04:30pm 23.3 SSW 17 19 1017.0 - 0.0 - - - - - - -
27/04:00pm 23.8 SSW 16 17 1017.1 - 0.0 - - - - - - -
27/03:30pm 24.6 SSW 14 17 1017.4 - 0.0 - - - - - - -
27/03:00pm 25.6 SSW 10 12 1017.6 - 0.0 - - - - - - -
27/02:30pm 27.5 SW 8 11 1018.0 - 0.0 - - - - - - -
27/02:00pm 26.8 SW 8 10 1018.3 - 0.0 - - - - - - -
27/01:30pm 25.4 SSW 10 11 1018.6 - 0.0 - - - - - - -
27/01:00pm 26.8 SW 8 11 1018.6 - 0.0 - - - - - - -
27/12:30pm 27.8 SW 6 9 1018.8 - 0.0 - - - - - - -
27/12:00pm 26.9 SW 3 6 1019.1 - 0.0 - - - - - - -
27/11:30am 24.8 SSW 7 9 1019.2 - 0.0 - - - - - - -
27/11:00am 23.9 SSW 6 9 1019.4 - 0.0 - - - - - - -
27/10:30am 23.0 S 4 7 1019.6 - 0.0 - - - - - - -
27/10:00am 21.3 SSW 7 11 1019.6 - 0.0 - - - - - - -
27/09:30am 19.6 S 3 8 1019.6 - 0.0 - - - - - - -
27/09:00am 19.3 ESE 3 3 1019.6 - 0.0 - - - - - - -
27/08:30am 17.0 S 3 4 1019.4 - 0.0 - - - - - - -
27/08:00am 15.8 SE 3 4 1019.3 - 0.0 - - - - - - -
27/07:30am 14.7 SE 5 6 1019.1 - 0.0 - - - - - - -
27/07:00am 14.0 SE 6 7 1019.0 - 0.0 - - - - - - -
27/06:30am 13.7 SSE 5 7 1018.8 - 0.0 - - - - - - -
27/06:00am 13.7 SSE 6 8 1018.7 - 0.0 - - - - - - -
27/05:30am 13.3 S 8 10 1018.5 - 0.0 - - - - - - -
27/05:00am 12.9 S 7 8 1018.4 - 0.0 - - - - - - -
27/04:30am 14.1 SSE 5 7 1018.1 - 0.0 - - - - - - -
27/04:00am 14.4 S 7 8 1018.2 - 0.0 - - - - - - -
27/03:30am 14.6 SSE 6 7 1018.5 - 0.0 - - - - - - -
27/03:00am 14.4 SSE 6 7 1018.6 - 0.0 - - - - - - -
27/02:30am 14.0 S 6 8 1018.7 - 0.0 - - - - - - -
27/02:00am 14.1 S 6 8 1018.9 - 0.0 - - - - - - -
27/01:30am 13.8 S 5 6 1019.3 - 0.0 - - - - - - -
27/01:00am 14.7 SSE 5 7 1019.4 - 0.0 - - - - - - -
27/12:30am 14.7 SSE 6 7 1019.5 - 0.0 - - - - - - -
27/12:00am 14.7 S 8 9 1019.6 - 0.0 - - - - - - -
 
Date/Time
CDT
Temp
°C
Wind Pressure Rain since
9am
mm
Weather Cloud Vis
km
Sea
Height
m
Swell
Dir  Spd
kts
Gust
kts
hPa Trend Height
m
Period
s
Dir
26/11:30pm 15.2 SSE 6 9 1019.7 - 0.0 - - - - - - -
26/11:00pm 15.4 SSE 4 6 1019.7 - 0.0 - - - - - - -
26/10:30pm 16.1 S 8 11 1019.7 - 0.0 - - - - - - -
26/10:00pm 16.4 S 12 16 1019.7 - 0.0 - - - - - - -
26/09:30pm 16.6 S 14 17 1019.5 - 0.0 - - - - - - -
26/09:00pm 16.6 S 11 14 1019.2 - 0.0 - - - - - - -
26/08:30pm 16.8 S 9 12 1019.1 - 0.0 - - - - - - -
26/08:00pm 17.1 SSW 12 14 1018.7 - 0.0 - - - - - - -
26/07:30pm 17.9 SSW 13 16 1018.5 - 0.0 - - - - - - -
26/07:00pm 18.4 SSW 16 20 1018.2 - 0.0 - - - - - - -
26/06:30pm 19.0 SSW 17 20 1018.2 - 0.0 - - - - - - -
26/06:00pm 19.4 SSW 18 22 1018.0 - 0.0 - - - - - - -
26/05:30pm 20.0 SSW 19 22 1017.9 - 0.0 - - - - - - -
26/05:00pm 20.7 SSW 17 21 1017.7 - 0.0 - - - - - - -
26/04:30pm 21.0 S 19 22 1017.6 - 0.0 - - - - - - -
26/04:00pm 21.1 SSW 19 22 1017.8 - 0.0 - - - - - - -
26/03:30pm 21.3 SSW 19 23 1018.1 - 0.0 - - - - - - -
26/03:00pm 21.2 SSW 19 23 1018.4 - 0.0 - - - - - - -
26/02:30pm 21.3 SSW 20 24 1018.7 - 0.0 - - - - - - -
26/02:00pm 20.9 SSW 18 21 1019.0 - 0.0 - - - - - - -
26/01:30pm 21.2 SSW 16 19 1019.2 - 0.0 - - - - - - -
26/01:00pm 20.7 SSW 17 20 1019.3 - 0.0 - - - - - - -
26/12:30pm 20.7 SSW 15 18 1019.8 - 0.0 - - - - - - -
26/12:00pm 21.5 SSW 13 16 1020.0 - 0.0 - - - - - - -
26/11:30am 22.1 ESE 6 11 1020.5 - 0.0 - - - - - - -
26/11:00am 21.0 SE 6 9 1020.7 - 0.0 - - - - - - -
26/10:30am 19.8 SE 8 13 1020.8 - 0.0 - - - - - - -
26/10:00am 19.3 SE 9 14 1020.9 - 0.0 - - - - - - -
26/09:30am 18.2 SE 11 16 1020.9 - 0.0 - - - - - - -
26/09:00am 16.8 SE 11 16 1021.1 - 0.0 - - - - - - -
26/08:30am 15.4 SE 8 13 1021.3 - 0.0 - - - - - - -
26/08:00am 13.7 SE 5 7 1021.4 - 0.0 - - - - - - -
26/07:30am 12.0 SE 4 5 1021.5 - 0.0 - - - - - - -
26/07:00am 11.1 SE 3 4 1021.3 - 0.0 - - - - - - -
26/06:30am 11.6 SSE 8 12 1021.1 - 0.0 - - - - - - -
26/06:00am 12.1 SSE 8 11 1020.8 - 0.0 - - - - - - -
26/05:30am 11.2 SSE 8 10 1020.8 - 0.0 - - - - - - -
26/05:00am 10.2 S 8 9 1021.0 - 0.0 - - - - - - -
26/04:30am 10.6 S 9 10 1021.1 - 0.0 - - - - - - -
26/04:00am 9.5 S 8 9 1021.4 - 0.0 - - - - - - -
26/03:30am 8.8 S 9 9 1021.5 - 0.0 - - - - - - -
26/03:00am 10.6 SSE 8 10 1021.5 - 0.0 - - - - - - -
26/02:30am 8.7 S 8 9 1021.9 - 0.0 - - - - - - -
26/02:00am 8.3 S 6 7 1022.3 - 0.0 - - - - - - -
26/01:30am 9.8 SSE 5 7 1022.7 - 0.0 - - - - - - -
26/01:00am 10.2 SSE 6 9 1023.0 - 0.0 - - - - - - -
26/12:30am 10.6 SSE 7 9 1023.4 - 0.0 - - - - - - -
26/12:00am 11.2 SE 9 12 1023.5 - 0.0 - - - - - - -
 
Date/Time
CDT
Temp
°C
Wind Pressure Rain since
9am
mm
Weather Cloud Vis
km
Sea
Height
m
Swell
Dir  Spd
kts
Gust
kts
hPa Trend Height
m
Period
s
Dir
25/11:30pm 11.5 SE 8 12 1023.7 - 0.0 - - - - - - -
25/11:00pm 12.2 SSE 9 14 1023.8 - 0.0 - - - - - - -
25/10:30pm 12.7 SSE 11 16 1023.9 - 0.0 - - - - - - -
25/10:00pm 13.4 SSE 11 17 1023.7 - 0.0 - - - - - - -
25/09:30pm 13.5 SSE 11 16 1023.8 - 0.0 - - - - - - -
25/09:00pm 13.9 SSE 12 17 1023.5 - 0.0 - - - - - - -
25/08:30pm 14.5 S 17 22 1023.3 - 0.0 - - - - - - -
25/08:00pm 14.7 S 15 21 1023.3 - 0.0 - - - - - - -
25/07:30pm 15.6 S 19 23 1023.0 - 0.0 - - - - - - -
25/07:00pm 16.3 S 20 24 1022.7 - 0.0 - - - - - - -
25/06:30pm 16.6 S 20 26 1022.8 - 0.0 - - - - - - -
25/06:00pm 17.0 S 22 28 1022.9 - 0.0 - - - - - - -
25/05:30pm 18.1 SSW 23 28 1022.9 - 0.0 - - - - - - -
25/05:00pm 18.0 SSW 22 27 1022.8 - 0.0 - - - - - - -
25/04:30pm 18.7 SSW 21 25 1023.2 - 0.0 - - - - - - -

Other Formats:

Comma delimited format used in spreadsheet applications
http://www.bom.gov.au/fwo/IDS60701/IDS60701.94813.axf

JavaScript Object Notation format (JSON) in row-major order
http://www.bom.gov.au/fwo/IDS60701/IDS60701.94813.json